A80 TRACON Summary / KATL TAF
ATL TRACON Summary:
A stationary front will remain in place south and east of ATL TRACON tonight, supporting isolated showers and thunderstorms north and east of ATL until 02z. Expect VFR conditions until patchy IFR ceilings form after 06z. Surface winds will be south to southwest at 5kts and occasionally variable. Flight hazards in the TRACON airspace outside of convection: None expected.

Updated:6/30/2016 8:40 PM
ATL Terminal Aerodrome Forecast:

FTUS80 KATL 010845 AAA
KATL 010844Z 0109/0212 20006KT P6SM SCT008 BKN012
      TEMPO 0109/0111 5SM BR BKN008
     FM011300 27005KT P6SM FEW040
     FM011800 28007KT P6SM SCT050
     FM020000 28005KT P6SM FEW250
     FM020500 26003KT P6SM FEW250
ATL TRACON Area Remark:
ISOLATED TS POSSIBLE E/SE AFTER 16Z.
Convective Gate Forecast / Icing Gate Forecast / Vertical Wind Profile (click on image to enlarge)
Convective Gate Forecast
Icing Gate Forecast
table with gate forecasts (convective and CCFP) used April - November while icing gate forecasts are issued
AIRMETs & SIGMETS/ Southeast Radar loop / Satellite Image (click on image to enlarge)

Southeast Radar Loop

 



USA.gov is the U.S. government's official web portal to all federal, state and local government web resources and services.